Time;durP1;ratioP1;P1;durP2;ratioP2;P2;SDS_P1;SDS_P2;PMS_P1;PMS_P2;Temp;Humidity;BMP_temperature;BMP_pressure;BME280_temperature;BME280_humidity;BME280_pressure;Samples;Min_cycle;Max_cycle;Signal;HPM_P1;HPM_P2
2022/08/28 00:00:07;;;;;;;15.80;4.73;;;;;;;13.05;100.00;101344.06;7390065;19;20463;-56
2022/08/28 00:02:39;;;;;;;20.03;4.53;;;;;;;12.95;100.00;101347.06;7394222;19;20713;-50
2022/08/28 00:05:10;;;;;;;20.50;4.33;;;;;;;12.99;100.00;101356.75;7385301;19;20418;-56
2022/08/28 00:07:40;;;;;;;14.93;4.50;;;;;;;12.90;100.00;101353.75;7392985;19;20391;-54
2022/08/28 00:10:17;;;;;;;20.17;4.33;;;;;;;12.85;100.00;101355.28;7385623;19;21226;-51
2022/08/28 00:12:48;;;;;;;14.47;3.70;;;;;;;12.73;100.00;101356.56;7393946;19;20390;-58
2022/08/28 00:15:20;;;;;;;19.10;4.37;;;;;;;12.71;100.00;101354.72;7384334;19;21258;-54
2022/08/28 00:17:53;;;;;;;14.77;4.00;;;;;;;12.72;100.00;101359.06;7394091;19;20398;-52
2022/08/28 00:20:23;;;;;;;17.20;4.70;;;;;;;12.69;100.00;101357.22;7385778;19;20937;-56
2022/08/28 00:22:54;;;;;;;19.50;4.90;;;;;;;12.67;100.00;101351.97;7393682;19;20396;-55
2022/08/28 00:25:25;;;;;;;19.43;4.20;;;;;;;12.64;100.00;101356.13;7382911;19;20515;-54
2022/08/28 00:27:53;;;;;;;18.47;4.93;;;;;;;12.59;100.00;101358.53;7392349;19;20738;-57
2022/08/28 00:30:26;;;;;;;16.53;3.80;;;;;;;12.62;100.00;101355.19;7384728;19;20434;-57
2022/08/28 00:33:02;;;;;;;13.93;4.67;;;;;;;12.65;100.00;101353.63;7392648;19;20460;-56
2022/08/28 00:35:32;;;;;;;13.70;3.93;;;;;;;12.62;100.00;101352.63;7392472;19;20408;-52
2022/08/28 00:38:02;;;;;;;18.57;4.73;;;;;;;12.57;100.00;101355.00;7385418;19;20392;-52
2022/08/28 00:40:32;;;;;;;14.00;4.23;;;;;;;12.62;100.00;101348.31;7392989;19;20396;-50
2022/08/28 00:43:03;;;;;;;21.90;5.37;;;;;;;12.55;100.00;101357.53;7389631;19;20403;-56
2022/08/28 00:45:34;;;;;;;15.60;4.60;;;;;;;12.48;100.00;101350.31;7392699;19;20382;-50
2022/08/28 00:48:11;;;;;;;13.83;4.23;;;;;;;12.50;100.00;101352.94;7385412;19;20383;-50
2022/08/28 00:53:30;;;;;;;14.63;5.10;;;;;;;12.41;100.00;101358.63;7386521;19;20434;-52
2022/08/28 00:56:03;;;;;;;20.93;4.47;;;;;;;12.40;100.00;101357.75;7393127;19;20444;-51
2022/08/28 00:58:42;;;;;;;17.30;4.67;;;;;;;12.36;100.00;101355.81;7384370;19;20422;-51
2022/08/28 01:01:12;;;;;;;15.07;4.00;;;;;;;12.28;100.00;101357.19;7393060;19;20464;-51
2022/08/28 01:03:45;;;;;;;17.00;4.07;;;;;;;12.35;100.00;101356.66;7382778;19;20415;-53
2022/08/28 01:06:19;;;;;;;23.83;4.10;;;;;;;12.39;100.00;101348.22;7392266;19;20388;-57
2022/08/28 01:08:52;;;;;;;20.20;4.67;;;;;;;12.33;100.00;101357.41;7383927;19;20415;-59
2022/08/28 01:11:22;;;;;;;14.37;4.40;;;;;;;12.34;100.00;101357.47;7392691;19;20389;-56
2022/08/28 01:13:55;;;;;;;17.87;4.57;;;;;;;12.41;100.00;101361.22;7382849;19;20419;-55
2022/08/28 01:16:29;;;;;;;21.50;5.40;;;;;;;12.41;100.00;101363.81;7392528;19;20403;-59
2022/08/28 01:19:07;;;;;;;16.43;4.50;;;;;;;12.28;100.00;101368.44;7383911;19;20416;-59
2022/08/28 01:21:41;;;;;;;14.80;4.03;;;;;;;12.24;100.00;101365.63;7392581;19;20400;-54
2022/08/28 01:24:16;;;;;;;18.80;4.80;;;;;;;12.15;100.00;101367.00;7382199;19;20415;-59
2022/08/28 01:26:46;;;;;;;21.83;5.00;;;;;;;12.17;100.00;101369.66;7391790;19;20394;-57
2022/08/28 01:29:16;;;;;;;20.90;4.80;;;;;;;12.08;100.00;101369.22;7384034;19;20416;-54
2022/08/28 01:31:46;;;;;;;16.33;4.90;;;;;;;12.08;100.00;101366.66;7392376;19;20392;-54
2022/08/28 01:34:16;;;;;;;16.10;5.00;;;;;;;12.04;100.00;101375.97;7375432;19;20424;-59
2022/08/28 01:36:46;;;;;;;22.17;5.30;;;;;;;12.04;100.00;101378.56;7392063;19;20719;-57
2022/08/28 01:39:20;;;;;;;17.27;4.77;;;;;;;12.00;100.00;101379.22;7384575;19;20432;-49
2022/08/28 01:41:52;;;;;;;19.00;4.97;;;;;;;11.95;100.00;101368.63;7392039;19;20468;-57
2022/08/28 01:44:24;;;;;;;13.47;4.70;;;;;;;11.93;100.00;101375.44;7383197;19;20934;-59
2022/08/28 01:46:55;;;;;;;16.87;4.70;;;;;;;11.89;100.00;101369.25;7398697;19;20387;-53
2022/08/28 01:49:28;;;;;;;17.73;4.63;;;;;;;11.89;100.00;101376.09;7391968;19;20415;-54
2022/08/28 01:51:59;;;;;;;19.27;4.93;;;;;;;11.91;100.00;101382.25;7399069;19;20384;-58
2022/08/28 01:54:34;;;;;;;12.73;4.40;;;;;;;11.92;100.00;101378.84;7389196;19;20440;-49
2022/08/28 01:57:04;;;;;;;14.97;5.07;;;;;;;12.07;100.00;101377.81;7398886;19;20398;-55
2022/08/28 01:59:33;;;;;;;10.37;4.20;;;;;;;12.03;100.00;101387.09;7391303;19;20413;-54
2022/08/28 02:02:03;;;;;;;16.57;4.40;;;;;;;11.97;100.00;101382.53;7402653;19;20729;-51
2022/08/28 02:04:33;;;;;;;21.33;4.73;;;;;;;11.95;100.00;101386.75;7387092;19;20441;-57
2022/08/28 02:07:02;;;;;;;16.10;4.90;;;;;;;12.05;100.00;101392.38;7397592;19;20389;-55
2022/08/28 02:09:34;;;;;;;21.47;4.97;;;;;;;11.99;100.00;101388.66;7390000;19;20417;-53
2022/08/28 02:12:05;;;;;;;17.47;4.53;;;;;;;11.99;100.00;101396.41;7398476;19;20387;-57
2022/08/28 02:14:35;;;;;;;16.43;5.73;;;;;;;11.95;100.00;101401.38;7387205;19;20425;-51
2022/08/28 02:17:04;;;;;;;14.37;4.70;;;;;;;11.94;100.00;101400.47;7398196;19;20383;-55
2022/08/28 02:19:34;;;;;;;14.30;4.00;;;;;;;11.86;100.00;101407.00;7389539;19;20426;-55
2022/08/28 02:22:07;;;;;;;16.67;5.80;;;;;;;11.90;100.00;101406.34;7398234;19;20389;-56
2022/08/28 02:24:39;;;;;;;17.17;6.00;;;;;;;11.86;100.00;101404.41;7387185;19;20420;-53
2022/08/28 02:27:08;;;;;;;13.80;4.50;;;;;;;11.81;100.00;101400.72;7397164;19;20394;-52
2022/08/28 02:29:38;;;;;;;20.53;5.30;;;;;;;11.98;100.00;101406.69;7389941;19;20412;-56
2022/08/28 02:32:07;;;;;;;21.07;4.33;;;;;;;11.94;100.00;101403.06;7397550;19;20393;-54
2022/08/28 02:34:38;;;;;;;20.93;4.50;;;;;;;11.91;100.00;101404.63;7386721;19;20415;-57
2022/08/28 02:37:10;;;;;;;29.73;5.40;;;;;;;11.92;100.00;101401.22;7397439;19;20395;-56
2022/08/28 02:39:42;;;;;;;17.80;5.53;;;;;;;12.07;100.00;101398.50;7389909;19;20503;-60
2022/08/28 02:42:12;;;;;;;11.83;5.27;;;;;;;12.06;100.00;101404.50;7397144;19;20931;-57
2022/08/28 02:44:43;;;;;;;15.23;5.00;;;;;;;12.11;100.00;101398.69;7386338;19;20505;-54
2022/08/28 02:47:13;;;;;;;22.90;5.80;;;;;;;12.14;100.00;101403.13;7398047;19;20396;-56
2022/08/28 02:49:43;;;;;;;15.73;5.10;;;;;;;12.12;100.00;101402.19;7390847;19;20403;-53
2022/08/28 02:52:14;;;;;;;14.60;4.40;;;;;;;12.13;100.00;101409.13;7397001;19;20397;-56
2022/08/28 02:54:46;;;;;;;20.63;5.93;;;;;;;11.98;100.00;101407.59;7384919;19;20426;-54
2022/08/28 02:57:15;;;;;;;14.97;4.70;;;;;;;11.85;100.00;101405.25;7397052;19;20376;-54
2022/08/28 02:59:46;;;;;;;22.13;5.00;;;;;;;11.75;100.00;101411.69;7389221;19;20748;-58
2022/08/28 03:02:16;;;;;;;18.83;5.07;;;;;;;11.80;100.00;101415.34;7396783;19;20778;-57
2022/08/28 03:04:45;;;;;;;16.27;5.03;;;;;;;11.89;100.00;101414.91;7386561;19;20449;-53
2022/08/28 03:07:15;;;;;;;22.27;6.20;;;;;;;11.99;100.00;101416.22;7396219;19;20922;-54
2022/08/28 03:09:47;;;;;;;13.60;4.57;;;;;;;11.89;100.00;101409.72;7388695;19;20941;-56
2022/08/28 03:12:22;;;;;;;13.63;4.87;;;;;;;11.81;100.00;101416.25;7396464;19;20917;-56
2022/08/28 03:14:52;;;;;;;11.73;4.53;;;;;;;11.92;100.00;101414.16;7386508;19;20411;-56
2022/08/28 03:17:22;;;;;;;21.47;6.33;;;;;;;11.91;100.00;101402.03;7395984;19;20398;-53
2022/08/28 03:19:52;;;;;;;21.80;4.80;;;;;;;11.85;100.00;101397.50;7387352;19;20417;-58
2022/08/28 03:23:25;;;;;;;20.50;4.83;;;;;;;11.83;100.00;101409.44;7396461;19;20414;-54
2022/08/28 03:25:16;;;;;;;18.80;5.00;;;;;;;11.74;100.00;101405.63;7385018;19;20510;-56
2022/08/28 03:27:45;;;;;;;16.40;5.87;;;;;;;11.79;100.00;101417.88;7395761;19;20387;-54
2022/08/28 03:30:16;;;;;;;27.47;5.67;;;;;;;11.74;100.00;101417.63;7387487;19;20752;-52
2022/08/28 03:32:45;;;;;;;15.53;4.60;;;;;;;11.66;100.00;101419.88;7395117;19;20388;-56
2022/08/28 03:35:15;;;;;;;13.37;4.93;;;;;;;11.70;100.00;101419.19;7385502;19;20779;-54
2022/08/28 03:37:45;;;;;;;24.20;5.83;;;;;;;11.69;100.00;101417.44;7396000;19;20389;-52
2022/08/28 03:40:18;;;;;;;13.90;4.80;;;;;;;11.68;100.00;101415.66;7387032;19;20407;-53
2022/08/28 03:42:48;;;;;;;22.73;5.60;;;;;;;11.74;100.00;101410.78;7394696;19;20470;-52
2022/08/28 03:45:22;;;;;;;16.47;5.03;;;;;;;11.79;100.00;101410.13;7385008;19;20944;-55
2022/08/28 03:47:56;;;;;;;16.27;4.80;;;;;;;12.02;100.00;101414.66;7394941;19;20386;-53
2022/08/28 03:50:27;;;;;;;20.67;7.40;;;;;;;11.92;100.00;101412.47;7394405;19;20427;-55
2022/08/28 03:52:58;;;;;;;23.00;9.27;;;;;;;11.88;100.00;101413.13;7394608;19;20399;-54
2022/08/28 03:55:30;;;;;;;15.50;4.80;;;;;;;11.98;100.00;101415.34;7398053;19;20446;-49
2022/08/28 03:57:59;;;;;;;18.33;5.07;;;;;;;12.10;100.00;101414.19;7388645;19;20393;-55
2022/08/28 04:00:29;;;;;;;12.63;4.20;;;;;;;11.95;100.00;101415.19;7394114;19;20386;-52
2022/08/28 04:02:59;;;;;;;14.83;5.87;;;;;;;11.88;100.00;101424.38;7393486;19;20391;-61
2022/08/28 04:05:28;;;;;;;15.17;5.10;;;;;;;11.91;100.00;101425.31;7396685;19;20441;-57
2022/08/28 04:07:58;;;;;;;11.47;5.13;;;;;;;11.90;100.00;101421.88;7392368;19;20386;-58
2022/08/28 04:10:31;;;;;;;10.30;4.20;;;;;;;11.82;100.00;101423.19;7393339;19;20411;-55
2022/08/28 04:13:01;;;;;;;12.40;4.40;;;;;;;11.91;100.00;101428.81;7386600;19;20387;-53
2022/08/28 04:15:31;;;;;;;13.03;4.77;;;;;;;11.78;100.00;101426.47;7393761;19;20807;-56
2022/08/28 04:18:00;;;;;;;17.33;4.80;;;;;;;11.76;100.00;101431.53;7387159;19;20914;-55
2022/08/28 04:20:30;;;;;;;17.13;4.63;;;;;;;11.72;100.00;101427.94;7393367;19;20380;-57
2022/08/28 04:23:02;;;;;;;21.40;5.20;;;;;;;11.70;100.00;101441.59;7385204;19;21277;-53
2022/08/28 04:25:34;;;;;;;14.10;4.30;;;;;;;11.78;100.00;101431.63;7393126;19;20454;-53
2022/08/28 04:28:04;;;;;;;17.87;5.67;;;;;;;11.63;100.00;101435.22;7385152;19;20727;-55
2022/08/28 04:30:34;;;;;;;14.70;3.77;;;;;;;11.53;100.00;101427.88;7393201;19;20391;-58
2022/08/28 04:33:04;;;;;;;18.33;6.23;;;;;;;11.40;100.00;101432.44;7385890;19;20389;-50
2022/08/28 04:35:34;;;;;;;15.43;3.90;;;;;;;11.35;100.00;101436.47;7393057;19;20840;-53
2022/08/28 04:38:03;;;;;;;9.67;4.00;;;;;;;11.33;100.00;101432.91;7384345;19;20395;-59
2022/08/28 04:40:40;;;;;;;13.70;5.07;;;;;;;11.29;100.00;101423.25;7395989;19;20391;-55
2022/08/28 04:43:10;;;;;;;15.73;5.77;;;;;;;11.32;100.00;101428.56;7385706;19;20406;-51
2022/08/28 04:45:41;;;;;;;20.07;4.50;;;;;;;11.37;100.00;101421.94;7393260;19;20404;-55
2022/08/28 04:48:11;;;;;;;17.60;4.90;;;;;;;11.32;100.00;101428.56;7385300;19;20386;-52
2022/08/28 04:50:43;;;;;;;8.90;3.87;;;;;;;11.37;100.00;101426.22;7392715;19;20392;-56
2022/08/28 04:53:13;;;;;;;16.00;5.30;;;;;;;11.54;100.00;101417.56;7383290;19;20392;-55
2022/08/28 04:55:47;;;;;;;13.23;4.77;;;;;;;11.56;100.00;101425.41;7396411;19;20390;-55
2022/08/28 04:58:23;;;;;;;16.00;4.57;;;;;;;11.52;100.00;101426.97;7384930;19;21318;-51
2022/08/28 05:00:54;;;;;;;11.07;5.07;;;;;;;11.48;100.00;101425.94;7392742;19;20391;-57
2022/08/28 05:03:24;;;;;;;18.50;5.17;;;;;;;11.52;100.00;101429.53;7382973;19;20437;-51
2022/08/28 05:05:55;;;;;;;15.50;5.10;;;;;;;11.48;100.00;101438.84;7393160;19;20390;-50
2022/08/28 05:08:28;;;;;;;13.97;4.20;;;;;;;11.48;100.00;101433.69;7385099;19;20417;-56
2022/08/28 05:11:09;;;;;;;13.83;4.43;;;;;;;11.53;100.00;101438.19;7392884;19;20384;-53
2022/08/28 05:13:39;;;;;;;15.40;4.30;;;;;;;11.51;100.00;101432.03;7383409;19;20414;-56
2022/08/28 05:16:08;;;;;;;14.97;4.20;;;;;;;11.55;100.00;101426.22;7392680;19;20402;-53
2022/08/28 05:18:38;;;;;;;15.93;4.30;;;;;;;11.65;100.00;101428.47;7386659;19;20422;-55
2022/08/28 05:21:12;;;;;;;19.60;3.67;;;;;;;11.65;100.00;101432.72;7400129;19;20399;-52
2022/08/28 05:23:44;;;;;;;14.27;5.00;;;;;;;11.71;100.00;101435.59;7390450;19;21359;-56
2022/08/28 05:26:16;;;;;;;15.40;4.30;;;;;;;11.74;100.00;101444.38;7399646;19;20383;-52
2022/08/28 05:28:46;;;;;;;21.87;5.67;;;;;;;11.78;100.00;101441.97;7391040;19;20421;-55
2022/08/28 05:31:18;;;;;;;21.67;4.10;;;;;;;11.86;100.00;101448.38;7399793;19;20390;-52
2022/08/28 05:33:49;;;;;;;16.27;4.97;;;;;;;11.95;100.00;101448.78;7389598;19;20418;-52
2022/08/28 05:36:20;;;;;;;20.30;4.53;;;;;;;11.92;100.00;101451.25;7399359;19;20386;-59
2022/08/28 05:38:51;;;;;;;11.33;4.43;;;;;;;12.01;100.00;101446.50;7391794;19;20469;-54
2022/08/28 05:41:29;;;;;;;16.50;4.53;;;;;;;12.02;100.00;101447.41;7399490;19;20410;-53
2022/08/28 05:43:59;;;;;;;17.50;4.40;;;;;;;12.11;100.00;101453.03;7386865;19;20413;-52
2022/08/28 05:46:29;;;;;;;16.37;4.80;;;;;;;12.21;100.00;101454.34;7399321;19;20392;-52
2022/08/28 05:48:59;;;;;;;20.60;4.70;;;;;;;12.39;100.00;101453.41;7388652;19;20778;-52
2022/08/28 05:51:30;;;;;;;14.97;4.40;;;;;;;12.39;100.00;101458.59;7399297;19;20458;-59
2022/08/28 05:54:00;;;;;;;14.50;4.00;;;;;;;12.43;100.00;101465.69;7389767;19;20988;-53
2022/08/28 05:56:37;;;;;;;15.20;4.70;;;;;;;12.48;100.00;101469.38;7399201;19;20393;-55
2022/08/28 05:59:07;;;;;;;11.10;3.53;;;;;;;12.56;100.00;101472.28;7390165;19;20427;-53
2022/08/28 06:01:39;;;;;;;11.10;3.97;;;;;;;12.69;100.00;101468.56;7402927;19;20389;-54
2022/08/28 06:04:12;;;;;;;26.50;4.27;;;;;;;12.71;100.00;101469.50;7388589;19;20818;-59
2022/08/28 06:06:42;;;;;;;13.57;4.33;;;;;;;12.70;100.00;101472.91;7398796;19;20401;-59
2022/08/28 06:09:13;;;;;;;17.47;6.10;;;;;;;12.78;100.00;101474.13;7390470;19;20440;-53
2022/08/28 06:11:46;;;;;;;15.27;3.90;;;;;;;12.80;100.00;101482.88;7398695;19;20382;-57
2022/08/28 06:14:18;;;;;;;12.77;3.73;;;;;;;12.81;100.00;101484.63;7388221;19;20422;-52
2022/08/28 06:16:50;;;;;;;18.73;3.90;;;;;;;12.88;100.00;101484.91;7398425;19;20391;-56
2022/08/28 06:19:21;;;;;;;8.90;3.33;;;;;;;12.82;100.00;101490.72;7392113;19;20978;-52
2022/08/28 06:21:54;;;;;;;14.70;4.53;;;;;;;12.99;100.00;101494.03;7398308;19;20389;-58
2022/08/28 06:24:23;;;;;;;12.67;3.50;;;;;;;12.99;100.00;101491.44;7384014;19;20419;-55
2022/08/28 06:26:56;;;;;;;11.97;4.00;;;;;;;13.13;100.00;101496.34;7397685;19;20730;-56
2022/08/28 06:29:28;;;;;;;15.00;3.90;;;;;;;13.20;100.00;101499.25;7386845;19;20429;-55
2022/08/28 06:31:59;;;;;;;16.30;3.83;;;;;;;13.24;100.00;101498.56;7398101;19;20386;-55
2022/08/28 06:34:30;;;;;;;16.27;3.50;;;;;;;13.39;100.00;101501.72;7387690;19;20818;-58
2022/08/28 06:36:59;;;;;;;18.77;3.00;;;;;;;13.43;100.00;101509.69;7397463;19;20450;-54
2022/08/28 06:39:29;;;;;;;8.03;3.17;;;;;;;13.49;100.00;101510.00;7389350;19;20442;-51
2022/08/28 06:42:01;;;;;;;13.33;3.10;;;;;;;13.57;100.00;101510.31;7397963;19;20394;-52
2022/08/28 06:44:31;;;;;;;13.97;3.63;;;;;;;13.63;100.00;101514.84;7385920;19;20443;-53
2022/08/28 06:47:01;;;;;;;16.07;4.10;;;;;;;13.75;100.00;101511.91;7401527;19;20751;-56
2022/08/28 06:49:31;;;;;;;14.97;3.77;;;;;;;13.84;100.00;101513.97;7386737;19;20814;-56
2022/08/28 06:52:01;;;;;;;7.63;2.90;;;;;;;13.97;100.00;101517.94;7397372;19;20392;-53
2022/08/28 06:54:30;;;;;;;24.23;4.17;;;;;;;14.06;100.00;101520.00;7385120;19;20437;-53
2022/08/28 06:57:02;;;;;;;11.87;2.80;;;;;;;14.20;100.00;101526.63;7397021;19;20384;-56
2022/08/28 06:59:32;;;;;;;9.40;3.20;;;;;;;14.33;100.00;101530.59;7386786;19;20422;-57
2022/08/28 07:02:02;;;;;;;12.57;2.53;;;;;;;14.43;100.00;101542.22;7396929;19;20392;-57
2022/08/28 07:04:32;;;;;;;12.60;3.33;;;;;;;14.51;100.00;101537.31;7385058;19;20439;-56
2022/08/28 07:07:02;;;;;;;17.47;3.10;;;;;;;14.65;100.00;101543.00;7396582;19;20383;-53
2022/08/28 07:09:31;;;;;;;14.47;3.40;;;;;;;14.74;100.00;101542.47;7386815;19;20418;-53
2022/08/28 07:12:04;;;;;;;13.83;2.90;;;;;;;14.85;100.00;101551.59;7396551;19;20398;-51
2022/08/28 07:14:34;;;;;;;18.70;3.20;;;;;;;14.94;100.00;101551.03;7385118;19;20413;-54
2022/08/28 07:17:06;;;;;;;13.57;3.23;;;;;;;14.99;100.00;101560.75;7395989;19;20775;-57
2022/08/28 07:19:35;;;;;;;13.50;3.33;;;;;;;15.09;100.00;101567.19;7386583;19;20419;-50
2022/08/28 07:22:05;;;;;;;9.67;2.93;;;;;;;15.16;100.00;101570.91;7396163;19;20391;-58
2022/08/28 07:24:35;;;;;;;12.37;3.03;;;;;;;15.27;100.00;101573.00;7385055;19;20782;-56
2022/08/28 07:27:07;;;;;;;7.97;2.50;;;;;;;15.31;100.00;101575.75;7395973;19;20493;-56
2022/08/28 07:29:37;;;;;;;16.90;3.23;;;;;;;15.40;100.00;101593.41;7386140;19;20994;-57
2022/08/28 07:32:07;;;;;;;17.90;3.13;;;;;;;15.47;100.00;101590.19;7395700;19;20910;-57
2022/08/28 07:34:40;;;;;;;12.90;3.77;;;;;;;15.59;100.00;101592.31;7384025;19;20414;-56
2022/08/28 07:37:10;;;;;;;19.80;3.17;;;;;;;15.69;100.00;101585.69;7395398;19;20378;-54
2022/08/28 07:39:43;;;;;;;12.07;2.90;;;;;;;15.71;100.00;101606.56;7386481;19;20418;-52
2022/08/28 07:44:48;;;;;;;11.90;3.87;;;;;;;15.87;100.00;101614.06;7395555;19;20467;-53
2022/08/28 07:45:03;;;;;;;10.50;2.73;;;;;;;15.95;100.00;101610.88;7383439;19;20422;-55
2022/08/28 07:47:33;;;;;;;9.07;2.73;;;;;;;16.01;100.00;101634.50;7395315;19;20391;-58
2022/08/28 07:50:03;;;;;;;11.67;3.13;;;;;;;16.09;100.00;101632.16;7384879;19;20457;-58
2022/08/28 07:52:32;;;;;;;10.47;2.67;;;;;;;16.16;100.00;101639.31;7395277;19;20387;-59
2022/08/28 07:55:03;;;;;;;14.00;3.00;;;;;;;16.25;100.00;101644.81;7383559;19;20762;-52
2022/08/28 07:57:36;;;;;;;12.67;3.53;;;;;;;16.38;100.00;101666.03;7394999;19;20387;-55
2022/08/28 08:00:08;;;;;;;9.07;3.03;;;;;;;16.44;100.00;101676.66;7386337;19;20516;-53
2022/08/28 08:02:37;;;;;;;16.07;3.27;;;;;;;16.52;100.00;101684.72;7394062;19;20383;-58
2022/08/28 08:05:08;;;;;;;7.87;3.00;;;;;;;16.62;100.00;101691.13;7384360;19;20469;-51
2022/08/28 08:07:39;;;;;;;15.10;2.93;;;;;;;16.78;100.00;101703.81;7394754;19;20724;-54
2022/08/28 08:10:14;;;;;;;17.03;3.43;;;;;;;16.90;100.00;101705.00;7385050;19;20416;-52
2022/08/28 08:12:51;;;;;;;17.63;9.43;;;;;;;17.07;100.00;101702.94;7393721;19;20453;-48
2022/08/28 08:15:22;;;;;;;15.37;5.57;;;;;;;17.04;100.00;101711.56;7383061;19;20419;-56
2022/08/28 08:17:51;;;;;;;13.23;4.53;;;;;;;17.17;100.00;101718.00;7394375;19;20908;-53
2022/08/28 08:20:21;;;;;;;17.20;5.00;;;;;;;17.14;100.00;101723.16;7384239;19;20807;-55
2022/08/28 08:22:50;;;;;;;12.17;3.00;;;;;;;17.20;100.00;101730.25;7393565;19;20898;-59
2022/08/28 08:25:20;;;;;;;21.57;3.87;;;;;;;17.23;100.00;101731.22;7382648;19;20451;-51
2022/08/28 08:27:52;;;;;;;11.60;3.17;;;;;;;17.37;100.00;101739.47;7394150;19;20392;-54
2022/08/28 08:30:22;;;;;;;12.13;3.33;;;;;;;17.57;100.00;101736.53;7384648;19;20444;-52
2022/08/28 08:32:52;;;;;;;9.30;3.00;;;;;;;17.47;100.00;101752.75;7393172;19;20462;-59
2022/08/28 08:35:22;;;;;;;11.30;3.77;;;;;;;17.44;100.00;101755.31;7381923;19;20422;-53
2022/08/28 08:37:52;;;;;;;8.50;2.50;;;;;;;17.43;100.00;101756.16;7393872;19;20402;-55
2022/08/28 08:40:22;;;;;;;9.13;2.67;;;;;;;17.43;100.00;101743.09;7383589;19;20422;-51
2022/08/28 08:42:56;;;;;;;9.00;2.90;;;;;;;17.47;100.00;101744.94;7392688;19;20395;-58
2022/08/28 08:45:28;;;;;;;12.27;2.80;;;;;;;17.51;100.00;101757.25;7390422;19;20432;-56
2022/08/28 08:47:58;;;;;;;10.30;3.17;;;;;;;17.66;100.00;101775.97;7396484;19;20395;-56
2022/08/28 08:50:29;;;;;;;10.70;4.20;;;;;;;17.84;100.00;101771.22;7392642;19;20778;-53
2022/08/28 08:53:12;;;;;;;10.03;3.00;;;;;;;17.86;100.00;101765.19;7387974;19;20387;-55
2022/08/28 08:55:45;;;;;;;13.53;3.20;;;;;;;18.02;100.00;101716.00;7393121;19;20406;-55
2022/08/28 08:58:23;;;;;;;9.43;3.17;;;;;;;18.12;100.00;101702.38;7385696;19;20920;-57
2022/08/28 09:00:58;;;;;;;16.43;3.90;;;;;;;18.17;100.00;101692.03;7393079;19;20383;-50
2022/08/28 09:03:46;;;;;;;13.30;3.70;;;;;;;18.18;100.00;101673.81;7382433;19;20433;-53
2022/08/28 09:06:22;;;;;;;9.50;3.10;;;;;;;18.17;100.00;101653.78;7393091;19;20463;-56
2022/08/28 09:08:57;;;;;;;10.30;3.30;;;;;;;18.25;100.00;101655.69;7385795;19;20775;-55
2022/08/28 09:11:36;;;;;;;10.77;3.10;;;;;;;18.35;100.00;101652.41;7391973;19;20386;-53
2022/08/28 09:14:14;;;;;;;6.80;2.13;;;;;;;18.57;100.00;101652.94;7384134;19;20763;-53
2022/08/28 09:16:48;;;;;;;16.83;3.00;;;;;;;18.76;100.00;101639.44;7392845;19;20388;-53
2022/08/28 09:19:21;;;;;;;10.90;3.30;;;;;;;18.93;100.00;101648.47;7383698;19;20761;-56
2022/08/28 09:21:52;;;;;;;10.07;3.00;;;;;;;18.87;100.00;101662.31;7392909;19;20375;-56
2022/08/28 09:24:25;;;;;;;11.23;3.10;;;;;;;18.69;100.00;101654.94;7381868;19;20449;-54
2022/08/28 09:26:57;;;;;;;62.83;32.10;;;;;;;18.41;100.00;101663.00;7392362;19;20383;-56
2022/08/28 09:29:33;;;;;;;10.37;3.67;;;;;;;18.29;100.00;101686.22;7383386;19;20442;-54
2022/08/28 09:32:19;;;;;;;28.33;12.00;;;;;;;18.21;100.00;101676.47;7391038;19;20924;-52
2022/08/28 09:35:05;;;;;;;8.73;2.67;;;;;;;18.10;100.00;101677.94;7380899;19;20419;-54
2022/08/28 09:37:36;;;;;;;6.77;2.57;;;;;;;18.22;100.00;101677.38;7391994;19;20387;-55
2022/08/28 09:40:24;;;;;;;8.97;2.50;;;;;;;18.55;100.00;101662.47;7381994;19;20411;-54
2022/08/28 09:45:54;;;;;;;11.23;2.57;;;;;;;18.85;100.00;101632.63;7391869;19;20407;-55
2022/08/28 09:48:25;;;;;;;8.07;2.77;;;;;;;18.64;100.00;101565.97;7381517;19;20411;-51
2022/08/28 09:51:02;;;;;;;18.00;3.23;;;;;;;18.49;100.00;101540.41;7391612;19;20394;-55
2022/08/28 09:53:33;;;;;;;8.70;2.90;;;;;;;18.38;100.00;101563.69;7379890;19;20422;-53
2022/08/28 09:56:25;;;;;;;11.00;3.10;;;;;;;18.37;100.00;101576.72;7391593;19;20384;-58
2022/08/28 09:58:58;;;;;;;8.63;3.00;;;;;;;18.32;100.00;101581.84;7381432;19;20968;-53
2022/08/28 10:01:41;;;;;;;11.53;2.60;;;;;;;18.34;100.00;101578.41;7391468;19;20395;-54
2022/08/28 10:04:32;;;;;;;8.40;2.63;;;;;;;18.55;100.00;101565.81;7379218;19;20407;-56
2022/08/28 10:07:06;;;;;;;14.47;2.93;;;;;;;18.91;100.00;101546.47;7398502;19;20391;-51
2022/08/28 10:09:43;;;;;;;9.83;2.40;;;;;;;19.02;100.00;101536.22;7389586;19;20414;-55
2022/08/28 10:12:30;;;;;;;11.53;3.53;;;;;;;19.25;100.00;101515.78;7396877;19;20407;-48
2022/08/28 10:15:06;;;;;;;9.93;3.63;;;;;;;19.41;100.00;101488.16;7387404;19;20418;-59
2022/08/28 10:17:44;;;;;;;7.47;2.67;;;;;;;19.59;100.00;101439.59;7398411;19;20380;-53
2022/08/28 10:20:19;;;;;;;8.77;2.20;;;;;;;19.62;100.00;101365.44;7388627;19;20419;-57
2022/08/28 10:22:54;;;;;;;9.03;2.67;;;;;;;19.72;100.00;101278.34;7397788;19;20388;-58
2022/08/28 10:25:29;;;;;;;7.10;2.60;;;;;;;19.72;100.00;101147.47;7393410;19;20431;-52
2022/08/28 10:28:11;;;;;;;11.07;2.77;;;;;;;19.49;100.00;101087.94;7396188;19;20458;-60
2022/08/28 10:30:46;;;;;;;15.37;6.60;;;;;;;19.50;100.00;101065.28;7398179;19;20407;-49
2022/08/28 10:33:28;;;;;;;9.93;3.47;;;;;;;19.58;100.00;101062.72;7385012;19;20383;-52
2022/08/28 10:36:01;;;;;;;16.20;3.13;;;;;;;19.13;100.00;101042.25;7397569;19;20375;-53
2022/08/28 10:38:39;;;;;;;14.33;2.77;;;;;;;18.70;100.00;100985.06;7388725;19;20968;-49
2022/08/28 10:41:12;;;;;;;14.10;3.80;;;;;;;18.38;100.00;100926.38;7397240;19;20391;-48
2022/08/28 10:43:45;;;;;;;9.47;3.27;;;;;;;18.27;100.00;100927.97;7388457;19;20411;-60
2022/08/28 10:46:18;;;;;;;10.40;2.87;;;;;;;18.24;100.00;100938.38;7397353;19;20753;-54
2022/08/28 10:48:57;;;;;;;16.47;3.77;;;;;;;18.27;100.00;100988.03;7390214;19;20419;-57
2022/08/28 10:51:34;;;;;;;9.60;3.10;;;;;;;18.18;100.00;101054.94;7397206;19;20401;-56
2022/08/28 10:54:18;;;;;;;16.80;3.30;;;;;;;18.17;100.00;101188.97;7386335;19;20945;-49
2022/08/28 10:56:53;;;;;;;14.13;3.07;;;;;;;18.17;100.00;101397.84;7397094;19;20389;-53
2022/08/28 10:59:25;;;;;;;8.47;2.73;;;;;;;18.21;100.00;101483.22;7388153;19;20429;-53
2022/08/28 11:01:55;;;;;;;11.93;3.50;;;;;;;18.16;100.00;101510.09;7397084;19;20799;-51
2022/08/28 11:04:27;;;;;;;14.23;3.53;;;;;;;18.11;100.00;101512.63;7385846;19;20458;-52
2022/08/28 11:07:00;;;;;;;15.70;3.50;;;;;;;18.02;100.00;101512.34;7397007;19;20399;-53
2022/08/28 11:09:33;;;;;;;13.10;3.50;;;;;;;18.19;100.00;101550.22;7388487;19;20425;-52
2022/08/28 11:12:05;;;;;;;11.00;3.63;;;;;;;18.21;100.00;101513.69;7395890;19;20414;-49
2022/08/28 11:14:36;;;;;;;9.87;3.03;;;;;;;18.06;100.00;101467.25;7386021;19;20967;-51
2022/08/28 11:17:38;;;;;;;11.10;3.40;;;;;;;18.05;100.00;101408.91;7395292;19;20404;-52
2022/08/28 11:20:15;;;;;;;10.00;3.37;;;;;;;18.13;100.00;101388.19;7387633;19;20808;-56
2022/08/28 11:22:48;;;;;;;13.17;3.17;;;;;;;18.28;100.00;101340.63;7395873;19;20383;-56
2022/08/28 11:25:20;;;;;;;14.63;4.23;;;;;;;18.32;100.00;101245.78;7384564;19;20414;-55
2022/08/28 11:28:17;;;;;;;8.30;3.30;;;;;;;18.28;100.00;101151.69;7389109;19;20918;-56
2022/08/28 11:30:48;;;;;;;10.30;3.20;;;;;;;18.39;100.00;101091.78;7396074;19;20811;-59
2022/08/28 11:33:37;;;;;;;11.43;3.00;;;;;;;18.48;100.00;101079.75;7384869;19;20383;-53
2022/08/28 11:36:56;;;;;;;8.17;2.90;;;;;;;18.49;100.00;101018.81;7395629;19;20511;-56
2022/08/28 11:39:29;;;;;;;10.60;3.30;;;;;;;18.42;100.00;101016.97;7383623;19;20434;-57